Ferros, Brazil
Current Conditions -  °F | °C
As of 8:15 AM on Tuesday 21 Oct 2014 (Local Time) from SBIP Reporting Station
Smoke Smoke  
Wind Chill: 73°   Ceiling: 4500
Heat Index: 73°   Visibility: 3mi
Dew Point: 68°   Wind: 5mph
Humidity: 83%   Direction: 220°SW
Pressure: 30.03"   Gusts: NA
Location:  19.23°S, 43.02°W
Report Text: SBIP 211015Z 22004KT 5000 1000W FU SCT015 BKN045 23/20 Q1017
Loading
Personal Weather Stations






























Interactive Weather Map
Tropical Storm Tracking
New forecast layout! Learn more

10-Day Weather Forecast

Advertisements
Track Severe Weather on mobile